Terminal Aerodrome Forecast
Issued by NWS

Home | Current Version | Previous Version | Text Only | Print | Product List | Glossary On
Versions: 1 2 3 4 5 6 7 8 9 10 11 12
000
FTUS46 KLOX 030500
TAFPRB
TAF
KPRB 030532Z 0306/0406 20008KT P6SM SKC
     FM031000 VRB03KT 2SM BR OVC004
     FM031600 VRB03KT 3SM BR BKN008
     FM032000 21015KT P6SM SKC
     FM040400 21008KT P6SM SKC=

USA.gov is the U.S. government's official web portal to all federal, state and local government web resources and services.